Time;durP1;ratioP1;P1;durP2;ratioP2;P2;SDS_P1;SDS_P2;PMS_P1;PMS_P2;Temp;Humidity;BMP_temperature;BMP_pressure;BME280_temperature;BME280_humidity;BME280_pressure;Samples;Min_cycle;Max_cycle;Signal;HPM_P1;HPM_P2
2021/01/10 00:01:31;;;;;;;16.52;8.98;;;-3.20;99.90;;;;;;476787;249;27269;-72
2021/01/10 00:03:33;;;;;;;14.38;9.68;;;-3.20;99.90;;;;;;476845;249;27227;-70
2021/01/10 00:05:34;;;;;;;17.35;9.95;;;-3.20;99.90;;;;;;476852;249;28042;-70
2021/01/10 00:07:35;;;;;;;16.20;9.05;;;-3.20;99.90;;;;;;476880;249;27805;-71
2021/01/10 00:09:36;;;;;;;12.40;8.75;;;-3.20;99.90;;;;;;476882;249;27123;-69
2021/01/10 00:11:38;;;;;;;16.85;9.73;;;-3.30;99.90;;;;;;476871;249;27351;-72
2021/01/10 00:13:40;;;;;;;14.32;9.50;;;;;;;;;;476907;249;26988;-70
2021/01/10 00:15:43;;;;;;;13.10;8.98;;;;;;;;;;476916;244;26100;-70
2021/01/10 00:17:45;;;;;;;13.05;8.55;;;-3.30;99.90;;;;;;476775;249;26674;-72
2021/01/10 00:19:45;;;;;;;14.30;8.27;;;-3.20;99.90;;;;;;476643;249;27820;-70
2021/01/10 00:21:46;;;;;;;10.23;7.75;;;-3.20;99.90;;;;;;476706;249;27915;-70
2021/01/10 00:23:49;;;;;;;12.30;8.20;;;;;;;;;;476750;249;28615;-71
2021/01/10 00:25:51;;;;;;;11.35;8.20;;;-3.20;99.90;;;;;;476726;249;26638;-71
2021/01/10 00:27:51;;;;;;;10.57;7.43;;;-3.10;99.90;;;;;;476668;249;27115;-70
2021/01/10 00:29:52;;;;;;;10.90;7.53;;;-3.10;99.90;;;;;;476722;249;28075;-71
2021/01/10 00:31:54;;;;;;;11.77;8.15;;;-3.10;99.90;;;;;;476710;244;29246;-71
2021/01/10 00:33:55;;;;;;;15.07;9.30;;;-3.10;99.90;;;;;;476793;249;27030;-70
2021/01/10 00:35:56;;;;;;;15.70;9.25;;;-3.10;99.90;;;;;;476814;249;27356;-70
2021/01/10 00:37:59;;;;;;;15.90;9.25;;;;;;;;;;476710;249;27343;-70
2021/01/10 00:40:00;;;;;;;12.10;8.23;;;-3.00;99.90;;;;;;476842;249;27554;-72
2021/01/10 00:42:01;;;;;;;17.58;8.50;;;-3.00;99.90;;;;;;476830;249;27027;-70
2021/01/10 00:44:02;;;;;;;12.55;8.07;;;-3.00;99.90;;;;;;476729;249;27478;-70
2021/01/10 00:46:04;;;;;;;14.73;9.27;;;-3.00;99.90;;;;;;476718;249;27356;-70
2021/01/10 00:48:05;;;;;;;13.60;9.10;;;-3.10;99.90;;;;;;476751;249;27467;-70
2021/01/10 00:50:06;;;;;;;14.63;10.18;;;-3.20;99.90;;;;;;476664;249;27363;-71
2021/01/10 00:52:07;;;;;;;13.13;9.00;;;-3.20;99.90;;;;;;476542;249;28026;-70
2021/01/10 00:54:09;;;;;;;13.23;9.80;;;-3.20;99.90;;;;;;476695;249;28032;-70
2021/01/10 00:56:10;;;;;;;12.63;8.50;;;-3.20;99.90;;;;;;476689;249;27232;-70
2021/01/10 00:58:11;;;;;;;15.25;9.75;;;-3.30;99.90;;;;;;476742;249;27665;-70
2021/01/10 01:00:13;;;;;;;14.40;9.70;;;-3.20;99.90;;;;;;476696;249;27143;-70
2021/01/10 01:02:14;;;;;;;13.00;9.43;;;-3.20;99.90;;;;;;476755;249;27148;-70
2021/01/10 01:04:15;;;;;;;12.45;9.30;;;-3.20;99.90;;;;;;476752;249;27243;-70
2021/01/10 01:06:16;;;;;;;14.82;8.25;;;-3.10;99.90;;;;;;476741;249;27948;-71
2021/01/10 01:08:18;;;;;;;13.05;8.77;;;-3.10;99.90;;;;;;476746;249;27933;-70
2021/01/10 01:10:19;;;;;;;14.20;9.15;;;-3.00;99.90;;;;;;476720;249;27435;-71
2021/01/10 01:12:20;;;;;;;13.98;9.02;;;-2.90;99.90;;;;;;476839;249;27545;-71
2021/01/10 01:14:21;;;;;;;12.65;9.10;;;-2.90;99.90;;;;;;476860;249;27190;-70
2021/01/10 01:16:23;;;;;;;12.00;8.27;;;-2.90;99.90;;;;;;476856;249;27261;-71
2021/01/10 01:18:24;;;;;;;14.43;9.23;;;-2.90;99.90;;;;;;476888;249;27224;-70
2021/01/10 01:20:25;;;;;;;11.70;8.25;;;-2.90;99.90;;;;;;476874;249;27469;-70
2021/01/10 01:22:26;;;;;;;11.38;8.00;;;-3.00;99.90;;;;;;476881;249;28487;-72
2021/01/10 01:24:28;;;;;;;14.32;9.30;;;-3.00;99.90;;;;;;476869;249;28963;-70
2021/01/10 01:26:29;;;;;;;12.80;8.23;;;-3.00;99.90;;;;;;476847;249;27455;-70
2021/01/10 01:28:30;;;;;;;13.13;8.55;;;-3.10;99.90;;;;;;476864;249;27384;-70
2021/01/10 01:30:31;;;;;;;14.45;8.20;;;-3.20;99.90;;;;;;476784;249;27190;-71
2021/01/10 01:32:33;;;;;;;11.40;8.45;;;-3.20;99.90;;;;;;476771;249;27363;-71
2021/01/10 01:34:34;;;;;;;10.23;7.68;;;-3.30;99.90;;;;;;476772;244;27492;-70
2021/01/10 01:36:35;;;;;;;12.73;8.88;;;-3.30;99.90;;;;;;476789;249;27108;-70
2021/01/10 01:38:36;;;;;;;15.45;9.30;;;-3.40;99.90;;;;;;476792;249;27887;-70
2021/01/10 01:40:38;;;;;;;12.70;8.32;;;-3.40;99.90;;;;;;476690;244;28029;-70
2021/01/10 01:42:39;;;;;;;12.23;8.88;;;-3.30;99.90;;;;;;476737;244;27014;-70
2021/01/10 01:44:40;;;;;;;12.40;9.02;;;-3.40;99.90;;;;;;476772;249;27184;-69
2021/01/10 01:46:41;;;;;;;12.68;8.45;;;-3.40;99.90;;;;;;476763;249;27138;-70
2021/01/10 01:48:44;;;;;;;11.85;7.53;;;;;;;;;;476740;249;27559;-70
2021/01/10 01:50:45;;;;;;;12.05;7.70;;;-3.50;99.90;;;;;;476702;249;26550;-70
2021/01/10 01:52:46;;;;;;;11.50;7.75;;;-3.50;99.90;;;;;;476763;249;27440;-70
2021/01/10 01:54:48;;;;;;;14.50;9.45;;;-3.50;99.90;;;;;;476738;249;27575;-70
2021/01/10 01:56:50;;;;;;;13.73;8.52;;;;;;;;;;476731;249;27532;-70
2021/01/10 01:58:53;;;;;;;13.65;9.10;;;;;;;;;;476739;245;26557;-70
2021/01/10 02:00:54;;;;;;;14.25;9.25;;;-3.50;99.90;;;;;;476740;249;26675;-71
2021/01/10 02:02:55;;;;;;;14.52;9.15;;;-3.50;99.90;;;;;;476810;249;27894;-70
2021/01/10 02:04:56;;;;;;;12.25;8.68;;;-3.40;99.90;;;;;;476821;249;28782;-70
2021/01/10 02:06:57;;;;;;;12.80;8.25;;;-3.40;99.90;;;;;;476869;249;27241;-70
2021/01/10 02:08:59;;;;;;;8.93;7.57;;;-3.40;99.90;;;;;;476802;249;27102;-70
2021/01/10 02:11:01;;;;;;;9.82;8.00;;;;;;;;;;476827;249;27119;-71
2021/01/10 02:13:02;;;;;;;11.07;8.05;;;-3.50;99.90;;;;;;476892;249;27070;-70
2021/01/10 02:15:04;;;;;;;11.55;7.85;;;-3.40;99.90;;;;;;476786;249;27728;-70
2021/01/10 02:17:05;;;;;;;9.80;7.70;;;-3.40;99.90;;;;;;476764;249;27247;-70
2021/01/10 02:19:06;;;;;;;11.10;7.72;;;-3.50;99.90;;;;;;476765;248;27430;-70
2021/01/10 02:21:07;;;;;;;11.57;8.30;;;-3.50;99.90;;;;;;476495;246;27237;-70
2021/01/10 02:23:09;;;;;;;13.30;7.18;;;-3.50;99.90;;;;;;476709;249;27114;-71
2021/01/10 02:25:10;;;;;;;14.25;7.75;;;-3.60;99.90;;;;;;476727;249;27320;-70
2021/01/10 02:27:11;;;;;;;8.60;7.32;;;-3.60;99.90;;;;;;476696;249;27042;-72
2021/01/10 02:29:12;;;;;;;10.93;7.53;;;-3.60;99.90;;;;;;476767;249;27851;-70
2021/01/10 02:31:14;;;;;;;8.90;6.53;;;-3.60;99.90;;;;;;476706;249;27810;-71
2021/01/10 02:33:15;;;;;;;9.40;7.00;;;-3.60;99.90;;;;;;476744;249;27131;-71
2021/01/10 02:35:16;;;;;;;9.50;6.75;;;-3.60;99.90;;;;;;476774;249;27244;-70
2021/01/10 02:37:17;;;;;;;11.07;6.57;;;-3.70;99.90;;;;;;476802;249;27281;-70
2021/01/10 02:39:19;;;;;;;9.05;6.35;;;-3.60;99.90;;;;;;476872;249;27095;-70
2021/01/10 02:41:20;;;;;;;11.32;7.60;;;-3.70;99.90;;;;;;476847;249;27174;-75
2021/01/10 02:43:21;;;;;;;9.60;6.60;;;-3.70;99.90;;;;;;476828;249;27022;-70
2021/01/10 02:45:23;;;;;;;10.68;7.90;;;-3.70;99.90;;;;;;476741;249;27370;-70
2021/01/10 02:47:24;;;;;;;10.77;7.18;;;-3.70;99.90;;;;;;476776;249;27776;-71
2021/01/10 02:49:25;;;;;;;12.90;7.18;;;-3.70;99.90;;;;;;476775;249;27443;-70
2021/01/10 02:51:26;;;;;;;8.57;7.03;;;-3.80;99.90;;;;;;476788;249;27001;-69
2021/01/10 02:53:29;;;;;;;8.02;6.50;;;;;;;;;;476885;249;27090;-71
2021/01/10 02:55:30;;;;;;;8.63;6.68;;;-3.70;99.90;;;;;;476894;249;27042;-70
2021/01/10 02:57:31;;;;;;;11.07;6.90;;;-3.70;99.90;;;;;;476911;249;27443;-69
2021/01/10 02:59:32;;;;;;;10.52;7.75;;;-3.70;99.90;;;;;;476898;249;26998;-70
2021/01/10 03:01:34;;;;;;;11.25;7.45;;;-3.80;99.90;;;;;;476890;249;27003;-71
2021/01/10 03:03:35;;;;;;;10.35;7.75;;;-3.70;99.90;;;;;;476909;249;27187;-70
2021/01/10 03:05:36;;;;;;;9.05;7.05;;;-3.70;99.90;;;;;;476911;249;27026;-70
2021/01/10 03:07:37;;;;;;;8.82;6.95;;;-3.70;99.90;;;;;;476877;249;26971;-70
2021/01/10 03:09:39;;;;;;;11.82;6.90;;;-3.70;99.90;;;;;;476815;249;27124;-69
2021/01/10 03:11:40;;;;;;;9.23;6.80;;;-3.70;99.90;;;;;;476771;249;27045;-72
2021/01/10 03:13:43;;;;;;;10.60;7.20;;;;;;;;;;476778;249;27645;-69
2021/01/10 03:15:45;;;;;;;9.20;6.90;;;;;;;;;;476723;249;27482;-70
2021/01/10 03:17:46;;;;;;;11.65;7.70;;;-3.70;99.90;;;;;;476734;244;26746;-71
2021/01/10 03:19:47;;;;;;;10.75;7.12;;;-3.70;99.90;;;;;;476755;249;27031;-70
2021/01/10 03:21:49;;;;;;;9.55;6.90;;;-3.80;99.90;;;;;;476747;249;27014;-70
2021/01/10 03:23:51;;;;;;;10.93;7.78;;;;;;;;;;476705;249;27515;-70
2021/01/10 03:25:52;;;;;;;9.98;7.53;;;-3.80;99.90;;;;;;476772;249;26674;-71
2021/01/10 03:27:55;;;;;;;12.15;7.97;;;;;;;;;;476063;249;27214;-70
2021/01/10 03:29:56;;;;;;;13.13;8.10;;;-3.80;99.90;;;;;;476802;249;26582;-72
2021/01/10 03:31:59;;;;;;;9.82;7.32;;;;;;;;;;476820;249;28536;-67
2021/01/10 03:34:01;;;;;;;10.50;7.60;;;;;;;;;;476871;249;26551;-69
2021/01/10 03:36:02;;;;;;;11.05;8.40;;;-3.70;99.90;;;;;;476869;249;27134;-70
2021/01/10 03:38:05;;;;;;;13.88;8.80;;;;;;;;;;476868;249;27631;-69
2021/01/10 03:40:06;;;;;;;12.90;8.77;;;-3.70;99.90;;;;;;476836;249;26784;-68
2021/01/10 03:42:08;;;;;;;14.23;9.13;;;;;;;;;;476400;249;27652;-70
2021/01/10 03:44:11;;;;;;;14.65;10.20;;;;;;;;;;476073;249;26672;-68
2021/01/10 03:46:13;;;;;;;13.02;8.55;;;;;;;;;;476541;249;27236;-70
2021/01/10 03:48:14;;;;;;;15.63;10.40;;;-3.60;99.90;;;;;;476592;249;26669;-69
2021/01/10 03:50:16;;;;;;;17.55;10.07;;;-3.70;99.90;;;;;;476736;249;27494;-69
2021/01/10 03:52:18;;;;;;;15.38;9.25;;;;;;;;;;476739;249;27859;-69
2021/01/10 03:54:21;;;;;;;14.85;8.93;;;;;;;;;;476787;249;26534;-69
2021/01/10 03:56:24;;;;;;;15.02;10.43;;;;;;;;;;476702;245;26690;-69
2021/01/10 03:58:24;;;;;;;16.98;8.70;;;-4.10;99.90;;;;;;476771;245;26754;-68
2021/01/10 04:00:27;;;;;;;13.88;8.82;;;;;;;;;;476705;249;27862;-68
2021/01/10 04:02:29;;;;;;;15.32;8.65;;;;;;;;;;476713;249;27457;-69
2021/01/10 04:04:30;;;;;;;15.35;9.45;;;-4.30;99.90;;;;;;476598;249;27291;-69
2021/01/10 04:06:33;;;;;;;14.95;10.27;;;;;;;;;;476665;249;27174;-68
2021/01/10 04:08:34;;;;;;;13.45;8.20;;;-4.30;99.90;;;;;;476626;249;27234;-68
2021/01/10 04:10:36;;;;;;;15.13;10.13;;;;;;;;;;476620;249;27569;-68
2021/01/10 04:12:39;;;;;;;13.55;9.18;;;;;;;;;;476859;249;26617;-68
2021/01/10 04:14:41;;;;;;;12.02;8.15;;;;;;;;;;476853;249;26514;-68
2021/01/10 04:16:44;;;;;;;12.82;9.00;;;;;;;;;;476860;249;26567;-68
2021/01/10 04:18:45;;;;;;;12.07;7.55;;;-4.30;99.90;;;;;;476873;249;26831;-69
2021/01/10 04:20:47;;;;;;;11.60;7.43;;;;;;;;;;476824;249;27050;-68
2021/01/10 04:22:50;;;;;;;11.43;7.80;;;;;;;;;;476867;249;27097;-68
2021/01/10 04:24:51;;;;;;;13.18;8.82;;;-4.50;99.90;;;;;;476892;249;26670;-68
2021/01/10 04:26:52;;;;;;;11.73;8.68;;;-4.50;99.90;;;;;;476929;249;27443;-68
2021/01/10 04:28:54;;;;;;;12.00;7.57;;;-4.40;99.90;;;;;;476904;249;27507;-68
2021/01/10 04:30:55;;;;;;;15.50;9.68;;;-4.40;99.90;;;;;;476846;249;27934;-71
2021/01/10 04:32:57;;;;;;;12.18;7.78;;;;;;;;;;476892;249;27474;-68
2021/01/10 04:35:00;;;;;;;14.43;8.38;;;;;;;;;;476852;249;26478;-67
2021/01/10 04:37:02;;;;;;;13.75;8.48;;;;;;;;;;476799;249;26561;-68
2021/01/10 04:39:05;;;;;;;14.80;9.27;;;;;;;;;;476821;249;28215;-69
2021/01/10 04:41:07;;;;;;;13.62;9.25;;;;;;;;;;476760;249;26555;-68
2021/01/10 04:43:10;;;;;;;14.77;9.50;;;;;;;;;;476802;249;26581;-68
2021/01/10 04:45:12;;;;;;;14.82;8.95;;;;;;;;;;476812;249;26752;-68
2021/01/10 04:47:14;;;;;;;13.20;9.30;;;;;;;;;;476767;249;26562;-69
2021/01/10 04:49:16;;;;;;;13.82;8.90;;;-4.10;99.90;;;;;;476742;249;27555;-68
2021/01/10 04:51:18;;;;;;;13.10;8.65;;;;;;;;;;476731;249;27557;-68
2021/01/10 04:53:21;;;;;;;11.70;8.57;;;;;;;;;;476791;249;26719;-68
2021/01/10 04:55:23;;;;;;;13.80;9.00;;;;;;;;;;476819;249;26558;-68
2021/01/10 04:57:24;;;;;;;12.40;9.13;;;-4.20;99.90;;;;;;476807;249;27076;-67
2021/01/10 04:59:27;;;;;;;11.50;8.60;;;;;;;;;;476886;249;29020;-67
2021/01/10 05:01:28;;;;;;;16.08;10.30;;;-4.20;99.90;;;;;;476827;249;26673;-69
2021/01/10 05:03:31;;;;;;;12.50;8.60;;;;;;;;;;476852;249;27129;-68
2021/01/10 05:05:33;;;;;;;14.15;8.70;;;;;;;;;;476876;244;26574;-68
2021/01/10 05:07:34;;;;;;;12.63;8.98;;;-4.20;99.90;;;;;;476746;249;27245;-68
2021/01/10 05:09:36;;;;;;;11.25;8.10;;;;;;;;;;476815;249;27573;-67
2021/01/10 05:11:39;;;;;;;12.82;8.98;;;;;;;;;;476763;249;26817;-69
2021/01/10 05:13:41;;;;;;;12.27;8.98;;;;;;;;;;476728;249;26678;-70
2021/01/10 05:15:42;;;;;;;13.82;9.50;;;-4.30;99.90;;;;;;476736;249;27119;-68
2021/01/10 05:17:45;;;;;;;13.30;9.07;;;;;;;;;;476682;249;28014;-69
2021/01/10 05:19:47;;;;;;;15.20;9.82;;;;;;;;;;476715;249;26571;-69
2021/01/10 05:21:49;;;;;;;15.07;9.23;;;-4.30;99.90;;;;;;476663;249;27167;-68
2021/01/10 05:23:51;;;;;;;13.25;8.63;;;;;;;;;;476716;249;27575;-69
2021/01/10 05:25:53;;;;;;;14.38;9.80;;;;;;;;;;476708;249;26895;-70
2021/01/10 05:27:55;;;;;;;12.93;8.90;;;-4.40;99.90;;;;;;476764;249;26641;-68
2021/01/10 05:29:56;;;;;;;15.52;9.75;;;-4.30;99.90;;;;;;476702;249;27650;-69
2021/01/10 05:31:58;;;;;;;11.93;8.45;;;;;;;;;;476691;249;27479;-69
2021/01/10 05:34:01;;;;;;;12.20;9.55;;;;;;;;;;476781;249;26846;-69
2021/01/10 05:36:02;;;;;;;14.48;9.85;;;-4.20;99.90;;;;;;476776;249;27363;-69
2021/01/10 05:38:03;;;;;;;15.77;10.63;;;-4.20;99.90;;;;;;476869;249;28000;-71
2021/01/10 05:40:05;;;;;;;14.00;9.73;;;-4.20;99.90;;;;;;476806;249;26986;-68
2021/01/10 05:42:07;;;;;;;14.75;9.45;;;;;;;;;;476783;249;27471;-69
2021/01/10 05:44:10;;;;;;;12.00;9.40;;;;;;;;;;476712;249;27279;-69
2021/01/10 05:46:11;;;;;;;15.95;10.00;;;-4.30;99.90;;;;;;476657;249;26710;-69
2021/01/10 05:48:13;;;;;;;13.43;9.50;;;;;;;;;;476568;249;27511;-69
2021/01/10 05:50:16;;;;;;;14.87;9.82;;;;;;;;;;476674;244;26641;-69
2021/01/10 05:52:17;;;;;;;13.82;9.68;;;-4.60;99.90;;;;;;476776;249;27749;-69
2021/01/10 05:54:21;;;;;;;14.02;9.77;;;;;;;;;;476793;249;27957;-69
2021/01/10 05:56:20;;;;;;;14.27;9.23;;;-4.50;99.90;;;;;;476845;245;26999;-69
2021/01/10 05:58:23;;;;;;;14.38;9.45;;;;;;;;;;476781;249;27655;-69
2021/01/10 06:00:24;;;;;;;15.77;9.13;;;-4.40;99.90;;;;;;476821;249;26763;-68
2021/01/10 06:02:25;;;;;;;13.73;9.85;;;-4.40;99.90;;;;;;476894;249;27424;-68
2021/01/10 06:04:27;;;;;;;14.85;10.20;;;-4.50;99.90;;;;;;476831;249;27555;-69
2021/01/10 06:06:29;;;;;;;14.30;9.20;;;;;;;;;;476761;249;27554;-69
2021/01/10 06:08:30;;;;;;;12.30;8.35;;;-4.60;99.90;;;;;;476757;249;27123;-70
2021/01/10 06:10:33;;;;;;;12.88;8.75;;;;;;;;;;476704;249;27511;-70
2021/01/10 06:12:34;;;;;;;12.82;9.07;;;-4.50;99.90;;;;;;476746;249;26772;-70
2021/01/10 06:14:35;;;;;;;16.90;10.65;;;-4.50;99.90;;;;;;476741;249;27566;-69
2021/01/10 06:16:37;;;;;;;14.50;9.40;;;-4.50;99.90;;;;;;476745;249;27891;-70
2021/01/10 06:18:38;;;;;;;13.95;9.60;;;-4.60;99.90;;;;;;476764;249;27448;-68
2021/01/10 06:20:40;;;;;;;17.77;10.68;;;;;;;;;;476641;245;28039;-70
2021/01/10 06:22:42;;;;;;;17.00;10.18;;;-4.60;99.90;;;;;;476719;249;26871;-69
2021/01/10 06:24:44;;;;;;;13.70;9.45;;;;;;;;;;476721;245;27928;-69
2021/01/10 06:26:45;;;;;;;10.43;8.40;;;-4.50;99.90;;;;;;476727;249;26586;-69
2021/01/10 06:28:48;;;;;;;12.70;8.27;;;;;;;;;;476734;249;27689;-68
2021/01/10 06:30:49;;;;;;;12.93;9.10;;;-4.50;99.90;;;;;;476718;249;27222;-70
2021/01/10 06:32:51;;;;;;;12.88;8.52;;;;;;;;;;476779;249;28098;-69
2021/01/10 06:34:54;;;;;;;13.18;9.82;;;;;;;;;;476825;249;26790;-69
2021/01/10 06:36:55;;;;;;;15.02;10.50;;;-4.60;99.90;;;;;;476859;249;26650;-69
2021/01/10 06:38:56;;;;;;;11.85;8.70;;;-4.70;99.90;;;;;;476870;249;27475;-70
2021/01/10 06:40:58;;;;;;;13.57;9.20;;;-4.70;99.90;;;;;;476776;249;27518;-69
2021/01/10 06:43:00;;;;;;;12.37;9.20;;;;;;;;;;476872;249;27444;-68
2021/01/10 06:45:01;;;;;;;13.65;9.55;;;-4.70;99.90;;;;;;476370;249;26680;-69
2021/01/10 06:47:03;;;;;;;14.45;9.63;;;-4.80;99.90;;;;;;476852;249;27575;-70
2021/01/10 06:49:04;;;;;;;14.45;10.35;;;-4.80;99.90;;;;;;476716;244;27508;-70
2021/01/10 06:51:05;;;;;;;13.55;9.70;;;-4.90;99.90;;;;;;476497;245;27482;-68
2021/01/10 06:53:06;;;;;;;12.90;8.80;;;-4.90;99.90;;;;;;476744;249;27576;-69
2021/01/10 06:55:09;;;;;;;10.88;8.93;;;;;;;;;;476772;249;28022;-69
2021/01/10 06:57:11;;;;;;;12.30;8.25;;;;;;;;;;476707;249;26871;-69
2021/01/10 06:59:12;;;;;;;13.60;9.07;;;-4.80;99.90;;;;;;476772;249;26558;-69
2021/01/10 07:01:14;;;;;;;12.75;9.10;;;-4.70;99.90;;;;;;476694;249;27519;-69
2021/01/10 07:03:15;;;;;;;12.05;8.70;;;-4.70;99.90;;;;;;476806;249;27559;-69
2021/01/10 07:05:17;;;;;;;12.98;8.52;;;;;;;;;;476872;249;27542;-69
2021/01/10 07:07:19;;;;;;;12.65;8.15;;;-4.80;99.90;;;;;;476869;249;26767;-70
2021/01/10 07:09:21;;;;;;;12.10;8.43;;;;;;;;;;476880;249;27559;-70
2021/01/10 07:11:24;;;;;;;13.23;8.73;;;;;;;;;;476785;249;27318;-68
2021/01/10 07:13:27;;;;;;;12.52;8.27;;;-4.80;99.90;;;;;;476888;249;26851;-70
2021/01/10 07:15:27;;;;;;;12.52;8.52;;;;;;;;;;476777;249;27423;-68
2021/01/10 07:17:29;;;;;;;13.15;8.32;;;-4.80;99.90;;;;;;476888;249;27459;-68
2021/01/10 07:19:30;;;;;;;15.18;8.50;;;-4.80;99.90;;;;;;476832;249;27501;-69
2021/01/10 07:21:31;;;;;;;10.48;8.05;;;-4.80;99.90;;;;;;476764;249;27478;-72
2021/01/10 07:23:32;;;;;;;12.43;8.25;;;-4.80;99.90;;;;;;476898;249;27562;-68
2021/01/10 07:25:35;;;;;;;11.05;7.72;;;;;;;;;;476806;249;27486;-69
2021/01/10 07:27:36;;;;;;;11.77;7.78;;;-4.80;99.90;;;;;;476749;249;27192;-68
2021/01/10 07:29:43;;;;;;;10.95;8.15;;;-4.80;99.90;;;;;;476766;249;27939;-70
2021/01/10 07:31:44;;;;;;;12.55;8.23;;;-4.80;99.90;;;;;;476695;249;27526;-69
2021/01/10 07:33:47;;;;;;;12.18;8.82;;;;;;;;;;476761;249;27487;-70
2021/01/10 07:35:48;;;;;;;11.32;8.40;;;-4.90;99.90;;;;;;476732;249;26891;-69
2021/01/10 07:37:51;;;;;;;12.23;8.35;;;-4.90;99.90;;;;;;476715;245;27598;-70
2021/01/10 07:39:52;;;;;;;12.18;7.85;;;;;;;;;;476709;249;27462;-70
2021/01/10 07:41:53;;;;;;;10.38;7.93;;;-4.80;99.90;;;;;;476553;249;26974;-70
2021/01/10 07:43:54;;;;;;;10.95;8.13;;;-4.80;99.90;;;;;;476737;249;27575;-69
2021/01/10 07:45:56;;;;;;;11.90;8.57;;;-4.70;99.90;;;;;;476743;249;27577;-71
2021/01/10 07:47:57;;;;;;;10.70;7.75;;;-4.70;99.90;;;;;;476730;249;27456;-68
2021/01/10 07:49:58;;;;;;;11.65;8.45;;;-4.70;99.90;;;;;;476638;249;27578;-69
2021/01/10 07:52:01;;;;;;;13.98;8.75;;;;;;;;;;476622;249;28085;-69
2021/01/10 07:54:02;;;;;;;12.27;7.65;;;-4.70;99.90;;;;;;476712;249;27741;-69
2021/01/10 07:56:03;;;;;;;11.98;8.60;;;-4.90;99.90;;;;;;476755;249;27559;-68
2021/01/10 07:58:04;;;;;;;13.85;8.80;;;-4.90;99.90;;;;;;476791;249;27526;-69
2021/01/10 08:00:07;;;;;;;11.40;8.02;;;;;;;;;;476663;249;27943;-69
2021/01/10 08:02:08;;;;;;;10.95;7.35;;;-5.00;99.90;;;;;;476629;249;26642;-69
2021/01/10 08:04:09;;;;;;;11.18;8.05;;;-4.90;99.90;;;;;;476755;249;27471;-70
2021/01/10 08:06:10;;;;;;;9.63;8.20;;;-4.90;99.90;;;;;;476719;249;27574;-68
2021/01/10 08:08:13;;;;;;;12.48;9.13;;;;;;;;;;476321;245;27936;-69
2021/01/10 08:10:14;;;;;;;10.63;7.12;;;-5.00;99.90;;;;;;476657;249;27463;-69
2021/01/10 08:12:15;;;;;;;12.82;8.38;;;-4.90;99.90;;;;;;476790;249;27804;-71
2021/01/10 08:14:17;;;;;;;11.85;8.00;;;-4.90;99.90;;;;;;476757;249;27522;-68
2021/01/10 08:16:18;;;;;;;10.63;8.05;;;-4.90;99.90;;;;;;476696;249;28004;-69
2021/01/10 08:18:19;;;;;;;13.20;8.55;;;-4.90;99.90;;;;;;476694;249;27944;-70
2021/01/10 08:20:22;;;;;;;14.82;8.43;;;;;;;;;;476722;249;27459;-69
2021/01/10 08:22:23;;;;;;;12.30;7.82;;;-4.90;99.90;;;;;;476731;249;27059;-68
2021/01/10 08:24:24;;;;;;;14.98;8.95;;;-4.80;99.90;;;;;;476737;249;28046;-69
2021/01/10 08:26:25;;;;;;;13.15;9.10;;;-4.80;99.90;;;;;;476730;249;28053;-70
2021/01/10 08:28:27;;;;;;;13.75;9.65;;;-4.70;99.90;;;;;;476756;249;27668;-69
2021/01/10 08:30:28;;;;;;;15.60;9.38;;;-4.60;99.90;;;;;;476676;249;27470;-70
2021/01/10 08:32:29;;;;;;;15.20;9.10;;;-4.60;99.90;;;;;;476796;249;27547;-68
2021/01/10 08:34:30;;;;;;;14.57;9.48;;;-4.60;99.90;;;;;;476861;249;27489;-69
2021/01/10 08:36:32;;;;;;;13.50;8.80;;;-4.50;99.90;;;;;;476873;249;27578;-70
2021/01/10 08:38:33;;;;;;;14.30;9.02;;;-4.50;99.90;;;;;;476834;249;27447;-69
2021/01/10 08:40:35;;;;;;;22.75;12.13;;;;;;;;;;476721;249;27965;-70
2021/01/10 08:42:38;;;;;;;19.37;11.07;;;;;;;;;;476755;249;26987;-69
2021/01/10 08:44:41;;;;;;;16.42;10.60;;;-4.40;99.90;;;;;;476771;249;26622;-69
2021/01/10 08:46:40;;;;;;;15.27;10.35;;;-4.30;99.90;;;;;;476722;249;27483;-70
2021/01/10 08:48:43;;;;;;;15.93;9.35;;;;;;;;;;476870;249;27439;-70
2021/01/10 08:50:44;;;;;;;13.70;8.60;;;-4.30;99.90;;;;;;476681;249;26967;-70
2021/01/10 08:52:47;;;;;;;13.73;9.10;;;;;;;;;;476729;249;27091;-69
2021/01/10 08:54:49;;;;;;;14.07;9.32;;;;;;;;;;476772;249;26531;-69
2021/01/10 08:56:51;;;;;;;12.27;8.57;;;;;;;;;;476684;249;26775;-70
2021/01/10 08:58:53;;;;;;;11.73;8.20;;;-4.30;99.90;;;;;;476740;249;28204;-70
2021/01/10 09:00:55;;;;;;;13.10;9.55;;;;;;;;;;476502;249;27518;-69
2021/01/10 09:02:58;;;;;;;11.23;8.10;;;;;;;;;;476742;249;26646;-68
2021/01/10 09:04:59;;;;;;;13.73;9.35;;;-4.10;99.90;;;;;;476756;249;26897;-69
2021/01/10 09:07:00;;;;;;;15.68;9.75;;;-4.00;99.90;;;;;;476744;249;27535;-69
2021/01/10 09:09:02;;;;;;;11.45;9.05;;;;;;;;;;476771;249;27487;-71
2021/01/10 09:11:05;;;;;;;14.05;9.40;;;;;;;;;;476651;244;27209;-70
2021/01/10 09:13:07;;;;;;;13.52;9.55;;;;;;;;;;476755;249;28291;-69
2021/01/10 09:15:10;;;;;;;15.25;10.50;;;;;;;;;;476718;249;26860;-69
2021/01/10 09:17:11;;;;;;;14.60;10.20;;;-3.80;99.90;;;;;;476734;249;27814;-69
2021/01/10 09:19:12;;;;;;;13.25;9.15;;;-3.80;99.90;;;;;;476712;249;27145;-69
2021/01/10 09:21:13;;;;;;;15.88;10.00;;;-3.70;99.90;;;;;;476686;249;27043;-69
2021/01/10 09:23:15;;;;;;;14.32;9.73;;;-3.60;99.90;;;;;;476717;249;27128;-69
2021/01/10 09:25:17;;;;;;;16.17;11.18;;;;;;;;;;476742;249;27142;-70
2021/01/10 09:27:18;;;;;;;18.17;11.77;;;-3.50;99.90;;;;;;476728;249;26649;-69
2021/01/10 09:29:20;;;;;;;15.90;11.10;;;-3.40;99.90;;;;;;476808;249;27106;-69
2021/01/10 09:31:21;;;;;;;22.20;12.95;;;-3.40;99.90;;;;;;476800;249;27514;-69
2021/01/10 09:33:22;;;;;;;18.40;12.32;;;-3.30;99.90;;;;;;476861;249;27206;-68
2021/01/10 09:35:23;;;;;;;20.80;12.30;;;-3.30;99.90;;;;;;476686;249;27811;-68
2021/01/10 09:37:25;;;;;;;20.60;12.82;;;-3.20;99.90;;;;;;476831;249;28945;-69
2021/01/10 09:39:26;;;;;;;21.48;12.50;;;-3.10;99.90;;;;;;476275;249;27272;-70
2021/01/10 09:41:27;;;;;;;18.77;12.63;;;-3.10;99.90;;;;;;476681;249;27022;-69
2021/01/10 09:43:28;;;;;;;17.55;11.55;;;-3.00;99.90;;;;;;476733;249;27217;-69
2021/01/10 09:45:30;;;;;;;16.75;11.10;;;-3.00;99.90;;;;;;476648;249;27416;-68
2021/01/10 09:47:31;;;;;;;18.02;11.15;;;-2.90;99.90;;;;;;476644;249;28243;-70
2021/01/10 09:49:34;;;;;;;15.70;10.50;;;-2.90;99.90;;;;;;476405;245;29759;-68
2021/01/10 09:51:34;;;;;;;15.52;10.07;;;-2.80;99.90;;;;;;476191;249;27628;-68
2021/01/10 09:53:35;;;;;;;16.10;10.40;;;-2.70;99.90;;;;;;476905;249;27343;-70
2021/01/10 09:55:36;;;;;;;16.95;11.00;;;-2.60;99.90;;;;;;476891;244;27104;-68
2021/01/10 09:57:39;;;;;;;14.05;10.50;;;-2.60;99.90;;;;;;476898;245;27303;-68
2021/01/10 09:59:39;;;;;;;12.37;8.15;;;-2.50;99.90;;;;;;476854;249;27402;-68
2021/01/10 10:01:40;;;;;;;15.73;9.98;;;-2.40;99.90;;;;;;476800;249;27969;-69
2021/01/10 10:03:41;;;;;;;17.35;11.02;;;-2.30;99.90;;;;;;476921;249;29034;-70
2021/01/10 10:05:42;;;;;;;14.45;9.90;;;-2.20;99.90;;;;;;476928;249;27195;-69
2021/01/10 10:07:44;;;;;;;12.45;8.65;;;-2.10;99.90;;;;;;476911;249;27239;-69
2021/01/10 10:09:45;;;;;;;11.48;8.73;;;-1.90;99.90;;;;;;476902;249;27352;-69
2021/01/10 10:11:46;;;;;;;14.45;10.38;;;-1.70;99.90;;;;;;476876;249;27243;-69
2021/01/10 10:13:47;;;;;;;10.38;7.70;;;-1.60;99.90;;;;;;476922;249;27479;-70
2021/01/10 10:15:58;;;;;;;11.80;8.98;;;-1.50;99.90;;;;;;476905;249;27903;-69
2021/01/10 10:17:56;;;;;;;9.27;7.07;;;-1.40;99.90;;;;;;476689;249;27591;-69
2021/01/10 10:19:57;;;;;;;10.25;7.20;;;-1.30;99.90;;;;;;476855;249;27540;-69
2021/01/10 10:21:58;;;;;;;8.30;6.82;;;-1.20;99.90;;;;;;476758;249;27479;-69
2021/01/10 10:23:59;;;;;;;8.82;5.90;;;-1.10;99.90;;;;;;476788;249;27571;-70
2021/01/10 10:26:01;;;;;;;8.30;6.32;;;-1.00;99.90;;;;;;476798;249;27439;-69
2021/01/10 10:28:02;;;;;;;7.97;6.80;;;-1.00;99.90;;;;;;476759;249;28096;-70
2021/01/10 10:30:03;;;;;;;8.50;6.43;;;-0.90;99.90;;;;;;476736;249;29194;-69
2021/01/10 10:32:04;;;;;;;11.10;7.80;;;-0.90;99.90;;;;;;476744;249;27976;-69
2021/01/10 10:34:06;;;;;;;8.80;6.90;;;-0.90;99.90;;;;;;476765;249;27467;-70
2021/01/10 10:36:07;;;;;;;7.97;6.32;;;-0.80;99.90;;;;;;476776;249;27523;-69
2021/01/10 10:38:09;;;;;;;9.73;6.97;;;-0.80;99.90;;;;;;476759;249;27681;-70
2021/01/10 10:40:09;;;;;;;8.55;6.90;;;-0.80;99.90;;;;;;476695;249;27795;-70
2021/01/10 10:42:11;;;;;;;9.00;7.03;;;-0.70;99.90;;;;;;476760;249;27827;-68
2021/01/10 10:44:12;;;;;;;10.05;7.40;;;-0.70;99.90;;;;;;476706;249;27506;-69
2021/01/10 10:46:13;;;;;;;9.95;7.32;;;-0.70;99.90;;;;;;476732;249;27475;-69
2021/01/10 10:48:14;;;;;;;10.32;7.15;;;-0.60;99.90;;;;;;476742;249;28122;-70
2021/01/10 10:50:16;;;;;;;8.40;6.97;;;-0.60;99.90;;;;;;476721;249;29074;-69